Time;durP1;ratioP1;P1;durP2;ratioP2;P2;SDS_P1;SDS_P2;PMS_P1;PMS_P2;Temp;Humidity;BMP_temperature;BMP_pressure;BME280_temperature;BME280_humidity;BME280_pressure;Samples;Min_cycle;Max_cycle;Signal;HPM_P1;HPM_P2
2021/08/07 00:02:14;;;;;;;2.17;1.98;;;17.30;99.90;;;;;;5063671;28;20068;-74
2021/08/07 00:04:40;;;;;;;3.60;2.33;;;17.30;99.90;;;;;;5065008;28;20437;-74
2021/08/07 00:07:05;;;;;;;4.38;2.40;;;17.30;99.90;;;;;;5061007;28;20067;-74
2021/08/07 00:09:31;;;;;;;3.05;2.00;;;17.30;99.90;;;;;;5062335;28;20056;-73
2021/08/07 00:11:56;;;;;;;6.88;2.10;;;17.20;99.90;;;;;;5064620;28;20028;-74
2021/08/07 00:14:22;;;;;;;2.05;1.80;;;17.20;99.90;;;;;;5069053;28;20028;-73
2021/08/07 00:16:47;;;;;;;4.22;1.90;;;17.20;99.90;;;;;;5059975;28;20056;-73
2021/08/07 00:19:13;;;;;;;2.65;2.10;;;17.20;99.90;;;;;;5050677;28;20076;-73
2021/08/07 00:21:38;;;;;;;2.50;2.10;;;17.10;99.90;;;;;;5063109;28;20144;-73
2021/08/07 00:24:04;;;;;;;3.05;2.10;;;17.10;99.90;;;;;;5063148;28;20484;-73
2021/08/07 00:26:29;;;;;;;3.35;2.13;;;17.10;99.90;;;;;;5058977;28;20055;-73
2021/08/07 00:28:55;;;;;;;5.25;2.25;;;17.10;99.90;;;;;;5067972;28;20025;-73
2021/08/07 00:31:20;;;;;;;2.63;1.98;;;17.10;99.90;;;;;;5061337;28;20018;-73
2021/08/07 00:33:46;;;;;;;3.33;2.28;;;17.00;99.90;;;;;;5068003;28;20066;-73
2021/08/07 00:36:11;;;;;;;2.85;2.42;;;17.00;99.90;;;;;;5062961;28;20039;-73
2021/08/07 00:38:37;;;;;;;3.80;2.28;;;17.00;99.90;;;;;;5065593;28;20033;-73
2021/08/07 00:41:02;;;;;;;5.75;2.03;;;16.90;99.90;;;;;;5067518;28;20032;-73
2021/08/07 00:43:28;;;;;;;3.35;2.42;;;16.90;99.90;;;;;;5066043;28;20025;-73
2021/08/07 00:45:53;;;;;;;3.80;2.67;;;16.90;99.90;;;;;;5066515;28;20025;-73
2021/08/07 00:48:19;;;;;;;3.05;2.47;;;16.90;99.90;;;;;;5067947;28;20409;-74
2021/08/07 00:50:48;;;;;;;3.25;2.50;;;16.80;99.90;;;;;;5067005;28;20058;-74
2021/08/07 00:53:14;;;;;;;3.33;2.42;;;16.90;99.90;;;;;;5055618;28;20506;-73
2021/08/07 00:55:39;;;;;;;4.35;2.63;;;16.90;99.90;;;;;;5062961;28;20028;-73
2021/08/07 00:58:05;;;;;;;2.60;2.35;;;16.90;99.90;;;;;;5061461;28;20112;-73
2021/08/07 01:00:32;;;;;;;2.78;2.22;;;16.80;99.90;;;;;;5067529;28;20732;-73
2021/08/07 01:03:08;;;;;;;3.50;2.70;;;16.80;99.90;;;;;;5062499;28;20025;-73
2021/08/07 01:05:51;;;;;;;3.30;2.30;;;16.80;99.90;;;;;;5066355;28;20033;-73
2021/08/07 01:08:19;;;;;;;4.25;2.60;;;16.80;99.90;;;;;;5062626;28;20055;-74
2021/08/07 01:10:50;;;;;;;3.67;2.90;;;16.70;99.90;;;;;;5068265;28;20503;-73
2021/08/07 01:13:32;;;;;;;4.22;2.65;;;16.70;99.90;;;;;;5061934;28;20031;-74
2021/08/07 01:16:25;;;;;;;2.78;2.40;;;16.70;99.90;;;;;;5063777;28;20585;-73
2021/08/07 01:18:52;;;;;;;3.38;2.50;;;16.70;99.90;;;;;;5065270;28;20033;-73
2021/08/07 01:21:23;;;;;;;2.40;2.20;;;16.60;99.90;;;;;;5067888;28;20089;-73
2021/08/07 01:23:49;;;;;;;3.70;2.75;;;16.60;99.90;;;;;;5064742;28;20032;-73
2021/08/07 01:26:36;;;;;;;2.88;2.50;;;16.60;99.90;;;;;;5064773;28;20046;-72
2021/08/07 01:29:03;;;;;;;3.85;2.53;;;16.60;99.90;;;;;;5070832;28;20052;-73
2021/08/07 01:31:29;;;;;;;2.50;2.30;;;16.50;99.90;;;;;;5063476;28;20107;-73
2021/08/07 01:33:56;;;;;;;3.03;2.67;;;16.50;99.90;;;;;;5063669;28;20086;-73
2021/08/07 01:36:22;;;;;;;3.85;2.80;;;16.50;99.90;;;;;;5066694;28;20031;-73
2021/08/07 01:38:47;;;;;;;3.40;2.70;;;16.40;99.90;;;;;;5067328;28;20025;-73
2021/08/07 01:41:18;;;;;;;5.13;2.78;;;16.40;99.90;;;;;;5056034;28;20052;-73
2021/08/07 01:43:43;;;;;;;4.70;3.25;;;16.40;99.90;;;;;;5063583;28;20035;-72
2021/08/07 01:46:11;;;;;;;5.20;2.92;;;16.40;99.90;;;;;;5063574;28;20174;-73
2021/08/07 01:49:12;;;;;;;4.47;3.13;;;16.40;99.90;;;;;;5063066;28;20029;-72
2021/08/07 01:52:03;;;;;;;4.97;3.05;;;16.40;99.90;;;;;;5064180;28;20039;-72
2021/08/07 01:54:36;;;;;;;4.07;2.92;;;16.40;99.90;;;;;;5069439;28;20037;-73
2021/08/07 01:57:06;;;;;;;4.40;2.90;;;16.40;99.90;;;;;;5068051;28;20036;-73
2021/08/07 01:59:34;;;;;;;5.68;3.00;;;16.40;99.90;;;;;;5065299;28;20032;-73
2021/08/07 02:02:00;;;;;;;4.32;2.75;;;16.40;99.90;;;;;;5066438;28;20024;-73
2021/08/07 02:04:27;;;;;;;3.72;2.97;;;16.30;99.90;;;;;;5066189;28;20465;-73
2021/08/07 02:06:55;;;;;;;3.80;2.90;;;16.30;99.90;;;;;;5066130;28;20029;-73
2021/08/07 02:09:20;;;;;;;5.40;3.22;;;16.30;99.90;;;;;;5067765;28;20619;-73
2021/08/07 02:11:46;;;;;;;3.80;3.00;;;16.30;99.90;;;;;;5066174;28;20060;-73
2021/08/07 02:14:14;;;;;;;4.78;3.35;;;16.20;99.90;;;;;;5070081;28;20036;-73
2021/08/07 02:16:43;;;;;;;4.25;3.05;;;16.20;99.90;;;;;;5067256;28;20028;-73
2021/08/07 02:19:09;;;;;;;3.95;2.67;;;16.20;99.90;;;;;;5066632;28;20035;-73
2021/08/07 02:21:37;;;;;;;4.85;3.20;;;16.20;99.90;;;;;;5062149;28;20029;-73
2021/08/07 02:24:02;;;;;;;3.47;2.88;;;16.20;99.90;;;;;;5062376;28;20478;-72
2021/08/07 02:26:29;;;;;;;3.97;2.60;;;16.20;99.90;;;;;;5057169;28;20112;-72
2021/08/07 02:28:54;;;;;;;4.63;3.13;;;16.20;99.90;;;;;;5067525;28;20036;-73
2021/08/07 02:31:20;;;;;;;5.10;3.03;;;16.20;99.90;;;;;;5069437;28;20024;-72
2021/08/07 02:33:46;;;;;;;3.40;3.10;;;16.20;99.90;;;;;;5063481;28;20410;-73
2021/08/07 02:36:14;;;;;;;3.72;3.00;;;16.20;99.90;;;;;;5067389;28;20483;-72
2021/08/07 02:38:40;;;;;;;3.38;2.75;;;16.20;99.90;;;;;;5064908;28;20040;-72
2021/08/07 02:41:07;;;;;;;4.88;2.83;;;16.20;99.90;;;;;;5062330;28;20033;-73
2021/08/07 02:43:33;;;;;;;3.88;2.88;;;16.10;99.90;;;;;;5064735;28;20063;-73
2021/08/07 02:45:59;;;;;;;3.00;2.58;;;16.10;99.90;;;;;;5068767;28;20016;-72
2021/08/07 02:48:26;;;;;;;4.22;2.72;;;16.10;99.90;;;;;;5060136;28;20025;-72
2021/08/07 02:50:53;;;;;;;3.67;2.80;;;16.00;99.90;;;;;;5061514;28;20521;-72
2021/08/07 02:53:19;;;;;;;4.25;2.85;;;16.00;99.90;;;;;;5061523;28;20492;-72
2021/08/07 02:55:45;;;;;;;3.20;2.88;;;16.00;99.90;;;;;;5063297;28;20037;-73
2021/08/07 02:58:11;;;;;;;3.13;2.83;;;16.00;99.90;;;;;;5063811;28;20098;-73
2021/08/07 03:00:37;;;;;;;3.40;2.90;;;15.90;99.90;;;;;;5068184;28;20032;-73
2021/08/07 03:03:03;;;;;;;2.95;2.70;;;15.90;99.90;;;;;;5068385;28;20020;-73
2021/08/07 03:05:29;;;;;;;2.70;2.50;;;15.90;99.90;;;;;;5066627;28;20025;-73
2021/08/07 03:07:54;;;;;;;3.03;2.47;;;15.90;99.90;;;;;;5068765;28;20033;-73
2021/08/07 03:10:20;;;;;;;2.80;2.45;;;15.90;99.90;;;;;;5066276;28;20086;-73
2021/08/07 03:12:47;;;;;;;2.95;2.50;;;15.80;99.90;;;;;;5065672;28;20404;-73
2021/08/07 03:15:13;;;;;;;4.43;3.38;;;15.80;99.90;;;;;;5062384;28;20033;-72
2021/08/07 03:17:39;;;;;;;3.83;2.92;;;15.80;99.90;;;;;;5059050;28;20081;-73
2021/08/07 03:20:06;;;;;;;3.53;2.80;;;15.80;99.90;;;;;;5065124;28;20037;-72
2021/08/07 03:22:32;;;;;;;2.90;2.47;;;15.80;99.90;;;;;;5069301;28;20264;-72
2021/08/07 03:24:57;;;;;;;3.13;2.60;;;15.80;99.90;;;;;;5058375;28;20056;-73
2021/08/07 03:27:23;;;;;;;3.22;2.85;;;15.70;99.90;;;;;;5068077;28;20105;-73
2021/08/07 03:29:48;;;;;;;6.07;2.78;;;15.70;99.90;;;;;;5055945;28;20032;-72
2021/08/07 03:32:14;;;;;;;3.45;2.97;;;15.70;99.90;;;;;;5059058;28;20039;-72
2021/08/07 03:34:40;;;;;;;6.10;2.58;;;15.70;99.90;;;;;;5058348;28;20040;-73
2021/08/07 03:37:05;;;;;;;4.35;2.70;;;15.60;99.90;;;;;;5065881;28;20094;-73
2021/08/07 03:39:31;;;;;;;4.13;3.35;;;15.60;99.90;;;;;;5066277;28;20078;-73
2021/08/07 03:41:56;;;;;;;2.92;2.60;;;15.60;99.90;;;;;;5055897;28;20036;-72
2021/08/07 03:44:21;;;;;;;3.30;2.80;;;15.60;99.90;;;;;;5066484;28;20028;-73
2021/08/07 03:46:47;;;;;;;4.00;3.05;;;15.50;99.90;;;;;;5067867;28;20024;-72
2021/08/07 03:49:12;;;;;;;3.20;2.90;;;15.50;99.90;;;;;;5059497;28;20056;-73
2021/08/07 03:51:38;;;;;;;3.03;2.55;;;15.50;99.90;;;;;;5064601;28;20078;-72
2021/08/07 03:54:04;;;;;;;3.92;2.80;;;15.50;99.90;;;;;;5068485;28;20111;-73
2021/08/07 03:56:29;;;;;;;3.10;2.70;;;15.50;99.90;;;;;;5058469;28;20060;-73
2021/08/07 03:58:54;;;;;;;3.60;2.88;;;15.50;99.90;;;;;;5066085;28;20024;-73
2021/08/07 04:01:20;;;;;;;4.40;2.60;;;15.50;99.90;;;;;;5053826;28;20068;-73
2021/08/07 04:03:45;;;;;;;3.13;2.60;;;15.50;99.90;;;;;;5068259;28;20029;-73
2021/08/07 04:06:11;;;;;;;5.95;2.63;;;15.40;99.90;;;;;;5061525;28;20029;-72
2021/08/07 04:08:36;;;;;;;5.07;3.25;;;15.40;99.90;;;;;;5059909;28;20023;-73
2021/08/07 04:11:02;;;;;;;3.42;2.50;;;15.40;99.90;;;;;;5066421;28;20101;-72
2021/08/07 04:13:27;;;;;;;3.15;2.78;;;15.40;99.90;;;;;;5061210;28;20638;-73
2021/08/07 04:15:53;;;;;;;4.25;3.33;;;15.50;99.90;;;;;;5061722;28;20039;-73
2021/08/07 04:18:18;;;;;;;4.85;3.40;;;15.40;99.90;;;;;;5067759;28;20458;-72
2021/08/07 04:20:44;;;;;;;3.92;3.08;;;15.50;99.90;;;;;;5058792;28;20495;-73
2021/08/07 04:23:09;;;;;;;5.47;3.78;;;15.50;99.90;;;;;;5062609;28;20029;-72
2021/08/07 04:25:35;;;;;;;4.90;3.50;;;15.60;99.90;;;;;;5067281;28;20020;-73
2021/08/07 04:28:01;;;;;;;6.10;3.97;;;15.60;99.90;;;;;;5066631;28;20029;-73
2021/08/07 04:30:27;;;;;;;6.35;3.72;;;15.70;99.90;;;;;;5061375;28;20016;-73
2021/08/07 04:32:52;;;;;;;3.63;3.00;;;15.70;99.90;;;;;;5064792;28;20032;-73
2021/08/07 04:35:18;;;;;;;4.32;3.90;;;15.80;99.90;;;;;;5066021;28;20038;-72
2021/08/07 04:37:48;;;;;;;5.88;3.70;;;15.80;99.90;;;;;;5060306;28;20032;-73
2021/08/07 04:40:14;;;;;;;8.10;3.53;;;15.90;99.90;;;;;;5068213;28;20083;-73
2021/08/07 04:42:40;;;;;;;4.18;3.50;;;15.90;99.90;;;;;;5063131;28;20028;-73
2021/08/07 04:45:06;;;;;;;8.45;3.40;;;15.90;99.90;;;;;;5067134;28;20031;-73
2021/08/07 04:47:31;;;;;;;6.10;3.53;;;16.00;99.90;;;;;;5065444;28;20035;-72
2021/08/07 04:49:57;;;;;;;4.57;3.20;;;16.00;99.90;;;;;;5056336;28;20028;-72
2021/08/07 04:52:22;;;;;;;3.90;3.50;;;16.00;99.90;;;;;;5054534;28;20040;-72
2021/08/07 04:54:48;;;;;;;6.75;3.63;;;16.00;99.90;;;;;;5064093;28;20031;-74
2021/08/07 04:57:13;;;;;;;5.20;3.72;;;16.00;99.90;;;;;;5058158;28;20032;-74
2021/08/07 04:59:39;;;;;;;7.97;3.72;;;16.10;99.90;;;;;;5068070;28;20078;-73
2021/08/07 05:02:04;;;;;;;4.28;3.63;;;16.20;99.90;;;;;;5060485;28;20450;-73
2021/08/07 05:04:29;;;;;;;4.07;3.67;;;16.20;99.90;;;;;;5066500;28;20029;-74
2021/08/07 05:06:55;;;;;;;4.68;3.33;;;16.30;99.90;;;;;;5059158;28;20035;-73
2021/08/07 05:09:20;;;;;;;4.28;3.30;;;16.30;99.90;;;;;;5063509;28;20040;-74
2021/08/07 05:11:46;;;;;;;4.60;3.70;;;16.30;99.90;;;;;;5065227;28;20028;-73
2021/08/07 05:14:11;;;;;;;4.75;4.03;;;16.40;99.90;;;;;;5054999;28;20032;-74
2021/08/07 05:16:37;;;;;;;4.78;3.92;;;16.40;99.90;;;;;;5063803;28;20546;-74
2021/08/07 05:19:02;;;;;;;6.03;4.20;;;16.50;99.90;;;;;;5063585;28;20032;-74
2021/08/07 05:21:28;;;;;;;4.53;3.42;;;16.50;99.90;;;;;;5053897;28;20075;-74
2021/08/07 05:23:53;;;;;;;7.60;4.15;;;16.50;99.90;;;;;;5057791;28;20494;-74
2021/08/07 05:26:19;;;;;;;9.63;3.65;;;16.50;99.90;;;;;;5062513;28;20013;-74
2021/08/07 05:28:45;;;;;;;7.93;3.90;;;16.50;99.90;;;;;;5062706;28;20021;-74
2021/08/07 05:31:11;;;;;;;7.25;3.95;;;16.50;99.90;;;;;;5057405;28;20025;-73
2021/08/07 05:33:37;;;;;;;5.07;3.60;;;16.60;99.90;;;;;;5062781;28;20031;-74
2021/08/07 05:36:03;;;;;;;5.15;3.55;;;16.60;99.90;;;;;;5056851;28;20112;-74
2021/08/07 05:38:28;;;;;;;5.45;3.42;;;16.70;99.90;;;;;;5061708;28;20039;-74
2021/08/07 05:40:54;;;;;;;5.00;3.40;;;16.70;99.90;;;;;;5067266;28;20021;-74
2021/08/07 05:43:19;;;;;;;3.97;3.30;;;16.70;99.90;;;;;;5057837;28;20033;-74
2021/08/07 05:45:45;;;;;;;3.88;3.38;;;16.80;99.90;;;;;;5065898;28;20013;-74
2021/08/07 05:48:10;;;;;;;4.72;3.53;;;16.80;99.90;;;;;;5066198;28;20491;-74
2021/08/07 05:50:35;;;;;;;4.13;3.58;;;16.90;99.90;;;;;;5062280;28;20052;-74
2021/08/07 05:53:01;;;;;;;6.82;3.35;;;16.90;99.90;;;;;;5060537;28;20376;-74
2021/08/07 05:55:27;;;;;;;4.28;3.58;;;17.00;99.90;;;;;;5057992;28;20033;-73
2021/08/07 05:57:52;;;;;;;4.82;3.00;;;17.00;99.90;;;;;;5066157;28;20021;-74
2021/08/07 06:00:18;;;;;;;3.97;3.10;;;17.00;99.90;;;;;;5061843;28;20044;-74
2021/08/07 06:02:44;;;;;;;3.90;3.50;;;17.10;99.90;;;;;;5064766;28;20017;-73
2021/08/07 06:05:10;;;;;;;4.05;3.15;;;17.10;99.90;;;;;;5052917;28;20031;-74
2021/08/07 06:08:06;;;;;;;5.65;3.22;;;17.20;99.90;;;;;;5069792;28;20025;-74
2021/08/07 06:10:32;;;;;;;3.55;2.88;;;17.20;99.90;;;;;;5068274;28;20049;-74
2021/08/07 06:12:57;;;;;;;5.70;3.20;;;17.30;99.90;;;;;;5067533;28;20079;-73
2021/08/07 06:15:23;;;;;;;8.18;2.80;;;17.30;99.90;;;;;;5062767;28;20467;-74
2021/08/07 06:17:49;;;;;;;4.93;2.88;;;17.40;99.90;;;;;;5071056;28;20032;-74
2021/08/07 06:20:15;;;;;;;4.85;3.65;;;17.40;99.90;;;;;;5061443;28;20056;-73
2021/08/07 06:22:41;;;;;;;4.35;3.00;;;17.50;99.90;;;;;;5063871;28;20535;-73
2021/08/07 06:25:08;;;;;;;4.05;2.92;;;17.50;99.90;;;;;;5061472;28;20112;-73
2021/08/07 06:27:33;;;;;;;3.95;2.97;;;17.50;99.90;;;;;;5064437;28;20052;-73
2021/08/07 06:30:00;;;;;;;4.55;3.15;;;17.50;99.90;;;;;;5058547;28;20048;-74
2021/08/07 06:32:26;;;;;;;4.45;3.13;;;17.50;99.90;;;;;;5053908;28;20083;-75
2021/08/07 06:34:51;;;;;;;5.68;3.55;;;17.60;99.90;;;;;;5067591;28;20040;-73
2021/08/07 06:37:17;;;;;;;6.25;3.47;;;17.60;99.90;;;;;;5069881;28;20516;-74
2021/08/07 06:39:42;;;;;;;5.65;3.13;;;17.60;99.90;;;;;;5055830;28;20033;-74
2021/08/07 06:42:08;;;;;;;4.13;3.35;;;17.70;99.90;;;;;;5062965;28;20032;-73
2021/08/07 06:44:34;;;;;;;5.90;3.03;;;17.60;99.90;;;;;;5063089;28;20025;-74
2021/08/07 06:47:00;;;;;;;4.80;3.20;;;17.70;99.90;;;;;;5066547;28;20391;-79
2021/08/07 06:49:25;;;;;;;6.30;3.20;;;17.70;99.90;;;;;;5066632;28;20035;-78
2021/08/07 06:51:52;;;;;;;6.53;3.00;;;17.70;99.90;;;;;;5069410;28;20035;-79
2021/08/07 06:54:17;;;;;;;3.50;2.65;;;17.70;99.90;;;;;;5067190;28;20275;-79
2021/08/07 06:56:47;;;;;;;4.30;2.92;;;17.70;99.90;;;;;;5068235;28;20495;-77
2021/08/07 06:59:16;;;;;;;4.60;2.97;;;17.90;99.90;;;;;;5068455;28;20067;-78
2021/08/07 07:01:44;;;;;;;3.08;2.78;;;17.90;99.90;;;;;;5062662;28;20029;-78
2021/08/07 07:04:09;;;;;;;6.88;2.63;;;17.90;99.90;;;;;;5061882;28;20025;-76
2021/08/07 07:06:35;;;;;;;4.78;3.20;;;18.00;99.90;;;;;;5065205;28;20048;-75
2021/08/07 07:09:00;;;;;;;5.47;3.03;;;18.10;99.90;;;;;;5061390;28;20124;-75
2021/08/07 07:11:26;;;;;;;5.03;2.80;;;18.10;99.90;;;;;;5068638;28;20043;-75
2021/08/07 07:13:51;;;;;;;4.55;3.03;;;18.10;99.90;;;;;;5068186;28;20450;-76
2021/08/07 07:16:17;;;;;;;3.50;2.60;;;18.10;99.90;;;;;;5059633;28;20056;-75
2021/08/07 07:18:42;;;;;;;4.63;2.50;;;18.20;99.90;;;;;;5058043;28;20056;-75
2021/08/07 07:21:09;;;;;;;7.40;2.65;;;18.20;99.90;;;;;;5065492;28;20067;-75
2021/08/07 07:23:35;;;;;;;2.83;2.33;;;18.30;99.90;;;;;;5060554;28;20032;-75
2021/08/07 07:26:01;;;;;;;4.88;3.03;;;18.40;99.90;;;;;;5066537;28;20029;-75
2021/08/07 07:28:27;;;;;;;4.28;2.30;;;18.40;99.90;;;;;;5062351;28;20436;-75
2021/08/07 07:30:52;;;;;;;3.63;2.85;;;18.40;99.90;;;;;;5065451;28;20498;-73
2021/08/07 07:33:18;;;;;;;4.72;2.60;;;18.50;99.90;;;;;;5061975;28;20035;-73
2021/08/07 07:35:43;;;;;;;3.58;2.30;;;18.50;99.90;;;;;;5056369;28;20025;-77
2021/08/07 07:38:08;;;;;;;4.13;2.63;;;18.60;99.90;;;;;;5065171;28;20021;-80
2021/08/07 07:40:34;;;;;;;3.00;2.20;;;18.60;99.90;;;;;;5063369;28;20025;-78
2021/08/07 07:43:00;;;;;;;2.50;2.28;;;18.70;99.90;;;;;;5066504;28;20108;-77
2021/08/07 07:45:26;;;;;;;4.03;2.60;;;18.70;99.90;;;;;;5061263;28;20033;-79
2021/08/07 07:47:52;;;;;;;2.92;2.33;;;18.80;99.90;;;;;;5068564;28;20437;-78
2021/08/07 07:50:17;;;;;;;3.10;2.40;;;18.90;99.90;;;;;;5062970;28;20025;-78
2021/08/07 07:52:44;;;;;;;5.15;2.20;;;18.90;99.90;;;;;;5064110;28;20032;-78
2021/08/07 07:55:10;;;;;;;3.55;1.90;;;18.90;99.90;;;;;;5054024;28;20491;-78
2021/08/07 07:57:36;;;;;;;2.80;2.50;;;19.10;99.90;;;;;;5065464;28;20115;-76
2021/08/07 08:00:08;;;;;;;6.13;2.63;;;19.00;99.90;;;;;;5062084;28;20108;-77
2021/08/07 08:02:34;;;;;;;3.63;2.35;;;19.10;99.90;;;;;;5052726;28;20080;-78
2021/08/07 08:04:59;;;;;;;4.45;2.00;;;19.20;99.90;;;;;;5056893;28;20032;-79
2021/08/07 08:07:24;;;;;;;3.58;1.90;;;19.20;99.90;;;;;;5065999;28;20039;-79
2021/08/07 08:09:50;;;;;;;2.85;2.10;;;19.30;99.90;;;;;;5058374;28;20120;-78
2021/08/07 08:12:21;;;;;;;3.05;2.05;;;19.40;99.90;;;;;;5066401;28;20033;-79
2021/08/07 08:14:47;;;;;;;3.03;2.33;;;19.50;99.90;;;;;;5067664;28;20036;-79
2021/08/07 08:17:12;;;;;;;3.47;2.28;;;19.50;99.90;;;;;;5060045;28;20029;-79
2021/08/07 08:19:40;;;;;;;3.50;2.40;;;19.50;99.90;;;;;;5055997;28;20123;-79
2021/08/07 08:22:06;;;;;;;4.20;2.03;;;19.60;99.90;;;;;;5060853;28;20070;-78
2021/08/07 08:24:32;;;;;;;6.32;2.25;;;19.70;99.90;;;;;;5058972;28;20029;-81
2021/08/07 08:26:57;;;;;;;2.90;2.00;;;19.70;99.90;;;;;;5065944;28;20036;-78
2021/08/07 08:29:26;;;;;;;4.18;2.78;;;19.70;99.90;;;;;;5056984;28;20036;-79
2021/08/07 08:31:51;;;;;;;4.20;1.90;;;19.80;99.90;;;;;;5065562;28;20029;-78
2021/08/07 08:34:17;;;;;;;3.15;2.00;;;19.80;99.90;;;;;;5061830;28;20029;-78
2021/08/07 08:36:42;;;;;;;2.40;2.10;;;19.90;99.90;;;;;;5058793;28;20104;-77
2021/08/07 08:39:10;;;;;;;2.97;2.08;;;20.00;99.90;;;;;;5053700;28;20479;-77
2021/08/07 08:41:36;;;;;;;2.75;2.10;;;20.10;99.90;;;;;;5062453;28;20032;-78
2021/08/07 08:44:03;;;;;;;4.47;1.73;;;20.10;99.90;;;;;;5062491;28;20020;-78
2021/08/07 08:46:30;;;;;;;5.95;2.15;;;20.20;99.90;;;;;;5061205;28;20031;-77
2021/08/07 08:48:56;;;;;;;2.55;2.20;;;20.30;99.90;;;;;;5060470;28;20017;-77
2021/08/07 08:51:25;;;;;;;3.05;2.08;;;20.30;99.90;;;;;;5058477;28;20504;-76
2021/08/07 08:53:51;;;;;;;2.55;2.10;;;20.30;99.90;;;;;;5061155;28;20025;-77
2021/08/07 08:56:17;;;;;;;3.20;2.30;;;20.30;99.90;;;;;;5066848;28;20051;-77
2021/08/07 08:58:42;;;;;;;2.22;1.92;;;20.40;99.90;;;;;;5064495;28;21841;-77
2021/08/07 09:01:09;;;;;;;3.28;2.03;;;20.40;99.90;;;;;;5064483;28;20044;-76
2021/08/07 09:03:35;;;;;;;5.65;2.20;;;20.50;99.90;;;;;;5066507;28;20029;-77
2021/08/07 09:06:00;;;;;;;3.92;1.80;;;20.70;99.90;;;;;;5063701;28;20032;-76
2021/08/07 09:08:26;;;;;;;1.95;1.83;;;20.80;99.90;;;;;;5052284;28;20692;-76
2021/08/07 09:11:11;;;;;;;2.15;1.85;;;20.80;99.90;;;;;;5066477;28;20033;-77
2021/08/07 09:13:37;;;;;;;1.70;1.60;;;20.80;99.90;;;;;;5063618;28;20509;-76
2021/08/07 09:16:10;;;;;;;4.53;1.90;;;20.80;99.90;;;;;;5064524;28;20025;-76
2021/08/07 09:18:36;;;;;;;3.20;2.00;;;20.80;99.90;;;;;;5063908;28;20119;-77
2021/08/07 09:21:16;;;;;;;3.83;1.88;;;20.90;99.90;;;;;;5064309;28;20076;-77
2021/08/07 09:23:43;;;;;;;1.75;1.52;;;21.10;99.90;;;;;;5060331;28;20029;-77
2021/08/07 09:26:23;;;;;;;6.10;1.67;;;21.20;99.90;;;;;;5062304;28;20031;-74
2021/08/07 09:28:56;;;;;;;1.63;1.50;;;21.40;99.90;;;;;;5062114;28;20051;-76
2021/08/07 09:31:23;;;;;;;2.60;1.80;;;21.50;99.90;;;;;;5064875;28;20075;-77
2021/08/07 09:34:17;;;;;;;2.13;1.55;;;21.50;99.90;;;;;;5068324;28;20029;-77
2021/08/07 09:36:48;;;;;;;7.70;1.70;;;21.50;99.90;;;;;;5059075;28;20146;-77
2021/08/07 09:39:15;;;;;;;2.20;1.60;;;21.50;99.90;;;;;;5060568;28;20090;-77
2021/08/07 09:42:00;;;;;;;1.52;1.40;;;21.50;99.90;;;;;;5060156;28;20127;-77
2021/08/07 09:44:25;;;;;;;2.38;1.80;;;21.50;99.00;;;;;;5059898;28;20529;-77
2021/08/07 09:47:03;;;;;;;2.15;1.70;;;21.40;99.90;;;;;;5058997;28;20110;-76
2021/08/07 09:49:36;;;;;;;3.42;1.90;;;21.40;99.90;;;;;;5057188;28;20803;-76
2021/08/07 09:52:01;;;;;;;1.65;1.50;;;21.30;99.80;;;;;;5060060;28;20040;-76
2021/08/07 09:54:44;;;;;;;1.50;1.40;;;21.40;99.90;;;;;;5056914;28;20028;-75
2021/08/07 09:57:31;;;;;;;3.10;1.70;;;21.50;99.70;;;;;;5068837;28;20035;-75
2021/08/07 09:59:57;;;;;;;2.28;1.67;;;21.60;99.40;;;;;;5071353;28;20051;-76
2021/08/07 10:02:32;;;;;;;2.85;1.55;;;21.70;99.70;;;;;;5061940;28;20499;-75
2021/08/07 10:05:00;;;;;;;1.98;1.60;;;21.90;97.30;;;;;;5061842;28;20020;-75
2021/08/07 10:07:27;;;;;;;2.72;1.58;;;22.00;96.80;;;;;;5068002;28;20028;-76
2021/08/07 10:09:54;;;;;;;2.72;1.65;;;22.10;97.50;;;;;;5065657;28;20046;-77
2021/08/07 10:12:20;;;;;;;1.50;1.40;;;22.20;97.60;;;;;;5069883;28;20439;-77
2021/08/07 10:14:47;;;;;;;1.95;1.52;;;22.30;95.90;;;;;;5070872;28;20112;-76
2021/08/07 10:17:17;;;;;;;74.22;16.35;;;22.40;95.70;;;;;;5062806;28;20495;-78
2021/08/07 10:19:46;;;;;;;3.65;1.92;;;22.50;95.30;;;;;;5070116;28;20453;-77
2021/08/07 10:22:13;;;;;;;1.40;1.30;;;22.60;95.20;;;;;;5058721;28;20064;-77
2021/08/07 10:24:42;;;;;;;2.05;1.50;;;22.70;91.90;;;;;;5065167;28;20052;-76
2021/08/07 10:27:08;;;;;;;2.72;1.50;;;22.80;91.50;;;;;;5069407;28;20028;-77
2021/08/07 10:29:45;;;;;;;2.25;1.40;;;22.90;91.50;;;;;;5068308;28;20032;-76
2021/08/07 10:32:14;;;;;;;1.70;1.60;;;22.90;89.10;;;;;;5070940;28;20099;-76
2021/08/07 10:34:45;;;;;;;1.50;1.40;;;22.80;90.50;;;;;;5065628;28;20094;-83
2021/08/07 10:37:12;;;;;;;1.60;1.50;;;22.70;90.80;;;;;;5065512;28;20032;-75
2021/08/07 10:39:37;;;;;;;1.50;1.40;;;22.80;90.50;;;;;;5065333;28;20048;-76
2021/08/07 10:42:06;;;;;;;2.15;1.50;;;23.00;90.60;;;;;;5071199;28;20032;-76
2021/08/07 10:44:32;;;;;;;2.95;1.63;;;23.20;88.70;;;;;;5069244;28;20448;-76
2021/08/07 10:46:58;;;;;;;1.60;1.20;;;23.40;86.30;;;;;;5069343;28;20108;-75
2021/08/07 10:49:39;;;;;;;1.60;1.50;;;23.50;85.40;;;;;;5063277;28;20111;-75
2021/08/07 10:52:22;;;;;;;2.00;1.60;;;23.50;86.20;;;;;;5069984;28;20028;-76
2021/08/07 10:54:55;;;;;;;1.52;1.42;;;23.30;86.20;;;;;;5070176;28;20046;-76
2021/08/07 10:57:37;;;;;;;1.63;1.42;;;23.30;81.80;;;;;;5065965;28;20796;-76
2021/08/07 11:00:23;;;;;;;2.22;1.30;;;23.30;83.60;;;;;;5064555;28;20036;-76
2021/08/07 11:02:49;;;;;;;1.65;1.00;;;23.50;82.70;;;;;;5056457;28;20025;-75
2021/08/07 11:05:15;;;;;;;1.80;1.40;;;23.60;82.50;;;;;;5067482;28;20025;-75
2021/08/07 11:07:40;;;;;;;2.90;1.27;;;23.80;81.50;;;;;;5065410;28;20027;-75
2021/08/07 11:10:09;;;;;;;1.60;1.30;;;23.80;82.60;;;;;;5060935;28;20033;-75
2021/08/07 11:12:38;;;;;;;2.38;1.42;;;24.00;79.10;;;;;;5064520;28;20040;-75
2021/08/07 11:15:06;;;;;;;1.42;1.33;;;24.00;79.40;;;;;;5062566;28;20031;-76
2021/08/07 11:17:34;;;;;;;2.47;1.58;;;23.90;79.50;;;;;;5063055;28;20043;-75
2021/08/07 11:20:09;;;;;;;1.65;1.15;;;23.80;79.90;;;;;;5056761;28;20056;-77
2021/08/07 11:22:40;;;;;;;4.22;1.63;;;23.80;78.50;;;;;;5061183;28;20032;-74
2021/08/07 11:25:07;;;;;;;1.60;1.50;;;23.60;80.50;;;;;;5062557;28;20016;-75
2021/08/07 11:28:03;;;;;;;2.55;1.73;;;23.40;81.10;;;;;;5067311;28;20429;-75
2021/08/07 11:30:33;;;;;;;1.67;1.52;;;23.50;82.00;;;;;;5058954;28;20036;-75
2021/08/07 11:33:00;;;;;;;2.60;1.38;;;23.70;80.60;;;;;;5064682;28;20060;-74
2021/08/07 11:35:31;;;;;;;1.98;1.52;;;24.00;80.40;;;;;;5056734;28;20033;-75
2021/08/07 11:38:09;;;;;;;3.05;1.70;;;24.50;79.00;;;;;;5059135;28;20059;-74
2021/08/07 11:40:56;;;;;;;1.80;1.50;;;24.70;77.50;;;;;;5056333;28;20514;-74
2021/08/07 11:43:28;;;;;;;3.55;1.40;;;24.80;74.30;;;;;;5060355;28;20025;-74
2021/08/07 11:45:59;;;;;;;1.40;1.23;;;24.80;75.20;;;;;;5063985;28;20046;-75
2021/08/07 11:48:28;;;;;;;2.05;1.40;;;24.80;74.70;;;;;;5064960;28;20490;-73
2021/08/07 11:50:54;;;;;;;8.38;5.30;;;25.00;73.20;;;;;;5068866;28;20097;-73
2021/08/07 11:53:22;;;;;;;5.22;2.05;;;25.40;72.40;;;;;;5061747;28;20042;-78
2021/08/07 11:56:01;;;;;;;1.67;1.08;;;25.70;70.30;;;;;;5063387;28;20029;-75
2021/08/07 11:58:27;;;;;;;1.70;1.60;;;25.50;68.60;;;;;;5059508;28;20506;-74
2021/08/07 12:01:12;;;;;;;1.80;1.70;;;25.40;63.90;;;;;;5061511;28;20048;-74
2021/08/07 12:03:49;;;;;;;8.15;4.70;;;25.40;66.00;;;;;;5058509;28;20479;-74
2021/08/07 12:06:17;;;;;;;1.33;1.23;;;25.30;64.00;;;;;;5062642;28;20479;-72
2021/08/07 12:08:43;;;;;;;2.75;1.00;;;25.20;63.80;;;;;;5056767;28;20025;-72
2021/08/07 12:11:11;;;;;;;1.75;1.15;;;24.90;67.20;;;;;;5064944;28;20040;-72
2021/08/07 12:13:57;;;;;;;9.30;6.18;;;24.80;68.50;;;;;;5059976;28;20494;-74
2021/08/07 12:16:37;;;;;;;5.60;4.13;;;24.90;66.80;;;;;;5059870;28;20060;-74
2021/08/07 12:19:14;;;;;;;3.85;2.05;;;24.80;65.50;;;;;;5064356;28;20102;-73
2021/08/07 12:21:40;;;;;;;1.25;0.90;;;24.70;64.20;;;;;;5063672;28;20104;-74
2021/08/07 12:24:20;;;;;;;2.85;1.13;;;24.90;64.60;;;;;;5058137;28;20051;-73
2021/08/07 12:26:48;;;;;;;2.15;1.20;;;24.90;64.10;;;;;;5061931;28;20132;-72
2021/08/07 12:29:28;;;;;;;1.35;1.10;;;25.10;64.40;;;;;;5064810;28;20025;-73
2021/08/07 12:31:56;;;;;;;2.28;1.73;;;25.60;67.70;;;;;;5057616;28;20053;-74
2021/08/07 12:34:23;;;;;;;1.50;1.08;;;26.10;62.20;;;;;;5059409;28;20048;-74
2021/08/07 12:36:58;;;;;;;2.92;1.27;;;26.20;64.40;;;;;;5056131;28;20028;-80
2021/08/07 12:39:45;;;;;;;1.95;1.55;;;26.60;61.90;;;;;;5059601;28;20063;-76
2021/08/07 12:42:14;;;;;;;1.40;0.90;;;27.20;62.60;;;;;;5059757;28;20043;-76
2021/08/07 12:44:39;;;;;;;1.00;0.90;;;27.70;56.50;;;;;;5055270;28;20029;-73
2021/08/07 12:47:05;;;;;;;1.08;0.90;;;28.10;52.70;;;;;;5057218;28;20087;-74
2021/08/07 12:49:51;;;;;;;2.00;0.88;;;28.50;53.70;;;;;;5056037;28;20033;-74
2021/08/07 12:52:18;;;;;;;1.58;1.00;;;28.70;52.50;;;;;;5063496;28;20040;-75
2021/08/07 12:55:04;;;;;;;1.23;1.00;;;28.70;52.70;;;;;;5060042;28;20131;-81